sensor_id;sensor_type;location;lat;lon;timestamp;P1;durP1;ratioP1;P2;durP2;ratioP2
3847;SDS011;1939;48.720;9.166;2022-07-11T00:02:21;2.67;;;2.10;;
3847;SDS011;1939;48.720;9.166;2022-07-11T00:04:46;2.17;;;2.00;;
3847;SDS011;1939;48.720;9.166;2022-07-11T00:07:12;4.30;;;2.20;;
3847;SDS011;1939;48.720;9.166;2022-07-11T00:09:37;8.63;;;2.07;;
3847;SDS011;1939;48.720;9.166;2022-07-11T00:12:02;3.40;;;2.20;;
3847;SDS011;1939;48.720;9.166;2022-07-11T00:14:28;8.00;;;2.30;;
3847;SDS011;1939;48.720;9.166;2022-07-11T00:16:53;4.73;;;2.27;;
3847;SDS011;1939;48.720;9.166;2022-07-11T00:19:19;7.13;;;2.30;;
3847;SDS011;1939;48.720;9.166;2022-07-11T00:21:45;2.60;;;2.40;;
3847;SDS011;1939;48.720;9.166;2022-07-11T00:24:10;5.30;;;2.00;;
3847;SDS011;1939;48.720;9.166;2022-07-11T00:26:36;3.93;;;2.13;;
3847;SDS011;1939;48.720;9.166;2022-07-11T00:29:01;2.53;;;2.20;;
3847;SDS011;1939;48.720;9.166;2022-07-11T00:31:27;6.30;;;2.47;;
3847;SDS011;1939;48.720;9.166;2022-07-11T00:33:52;5.60;;;2.30;;
3847;SDS011;1939;48.720;9.166;2022-07-11T00:36:18;3.33;;;2.00;;
3847;SDS011;1939;48.720;9.166;2022-07-11T00:38:43;2.17;;;1.80;;
3847;SDS011;1939;48.720;9.166;2022-07-11T00:41:08;3.57;;;2.10;;
3847;SDS011;1939;48.720;9.166;2022-07-11T00:43:37;8.20;;;2.73;;
3847;SDS011;1939;48.720;9.166;2022-07-11T00:46:06;2.53;;;2.20;;
3847;SDS011;1939;48.720;9.166;2022-07-11T00:48:32;3.43;;;3.13;;
3847;SDS011;1939;48.720;9.166;2022-07-11T00:50:57;5.80;;;2.60;;
3847;SDS011;1939;48.720;9.166;2022-07-11T00:53:23;3.87;;;2.43;;
3847;SDS011;1939;48.720;9.166;2022-07-11T00:55:48;3.50;;;2.03;;
3847;SDS011;1939;48.720;9.166;2022-07-11T00:58:14;3.60;;;2.27;;
3847;SDS011;1939;48.720;9.166;2022-07-11T01:00:40;3.07;;;2.00;;
3847;SDS011;1939;48.720;9.166;2022-07-11T01:03:06;3.47;;;2.60;;
3847;SDS011;1939;48.720;9.166;2022-07-11T01:05:31;2.37;;;2.10;;
3847;SDS011;1939;48.720;9.166;2022-07-11T01:07:57;3.53;;;2.50;;
3847;SDS011;1939;48.720;9.166;2022-07-11T01:10:22;2.43;;;2.20;;
3847;SDS011;1939;48.720;9.166;2022-07-11T01:12:47;2.50;;;2.20;;
3847;SDS011;1939;48.720;9.166;2022-07-11T01:15:16;2.67;;;2.47;;
3847;SDS011;1939;48.720;9.166;2022-07-11T01:17:41;4.67;;;2.30;;
3847;SDS011;1939;48.720;9.166;2022-07-11T01:20:07;3.50;;;2.87;;
3847;SDS011;1939;48.720;9.166;2022-07-11T01:22:34;3.03;;;1.80;;
3847;SDS011;1939;48.720;9.166;2022-07-11T01:25:00;2.33;;;2.10;;
3847;SDS011;1939;48.720;9.166;2022-07-11T01:27:26;4.60;;;1.70;;
3847;SDS011;1939;48.720;9.166;2022-07-11T01:29:51;2.97;;;1.90;;
3847;SDS011;1939;48.720;9.166;2022-07-11T01:32:19;5.83;;;1.93;;
3847;SDS011;1939;48.720;9.166;2022-07-11T01:34:46;3.03;;;2.20;;
3847;SDS011;1939;48.720;9.166;2022-07-11T01:37:11;3.53;;;2.50;;
3847;SDS011;1939;48.720;9.166;2022-07-11T01:39:36;6.50;;;2.50;;
3847;SDS011;1939;48.720;9.166;2022-07-11T01:42:01;2.30;;;2.10;;
3847;SDS011;1939;48.720;9.166;2022-07-11T01:44:26;3.23;;;2.40;;
3847;SDS011;1939;48.720;9.166;2022-07-11T01:46:52;3.50;;;2.73;;
3847;SDS011;1939;48.720;9.166;2022-07-11T01:49:18;3.50;;;2.23;;
3847;SDS011;1939;48.720;9.166;2022-07-11T01:51:43;4.60;;;2.63;;
3847;SDS011;1939;48.720;9.166;2022-07-11T01:54:08;2.80;;;2.00;;
3847;SDS011;1939;48.720;9.166;2022-07-11T01:56:33;4.03;;;2.60;;
3847;SDS011;1939;48.720;9.166;2022-07-11T01:58:59;3.00;;;2.73;;
3847;SDS011;1939;48.720;9.166;2022-07-11T02:01:24;4.73;;;2.63;;
3847;SDS011;1939;48.720;9.166;2022-07-11T02:03:50;9.57;;;3.43;;
3847;SDS011;1939;48.720;9.166;2022-07-11T02:06:15;4.90;;;2.77;;
3847;SDS011;1939;48.720;9.166;2022-07-11T02:08:40;7.03;;;2.70;;
3847;SDS011;1939;48.720;9.166;2022-07-11T02:11:05;2.70;;;2.17;;
3847;SDS011;1939;48.720;9.166;2022-07-11T02:13:31;4.13;;;2.67;;
3847;SDS011;1939;48.720;9.166;2022-07-11T02:15:56;3.73;;;2.63;;
3847;SDS011;1939;48.720;9.166;2022-07-11T02:18:21;4.77;;;3.00;;
3847;SDS011;1939;48.720;9.166;2022-07-11T02:20:46;3.00;;;2.43;;
3847;SDS011;1939;48.720;9.166;2022-07-11T02:23:14;5.60;;;3.10;;
3847;SDS011;1939;48.720;9.166;2022-07-11T02:25:39;2.83;;;2.50;;
3847;SDS011;1939;48.720;9.166;2022-07-11T02:28:05;6.17;;;2.90;;
3847;SDS011;1939;48.720;9.166;2022-07-11T02:30:33;3.10;;;2.30;;
3847;SDS011;1939;48.720;9.166;2022-07-11T02:32:58;3.40;;;2.93;;
3847;SDS011;1939;48.720;9.166;2022-07-11T02:35:23;2.97;;;2.70;;
3847;SDS011;1939;48.720;9.166;2022-07-11T02:37:49;3.70;;;3.00;;
3847;SDS011;1939;48.720;9.166;2022-07-11T02:40:14;3.70;;;3.00;;
3847;SDS011;1939;48.720;9.166;2022-07-11T02:42:39;3.83;;;3.07;;
3847;SDS011;1939;48.720;9.166;2022-07-11T02:45:05;3.53;;;3.10;;
3847;SDS011;1939;48.720;9.166;2022-07-11T02:47:32;2.93;;;2.37;;
3847;SDS011;1939;48.720;9.166;2022-07-11T02:49:57;5.23;;;3.33;;
3847;SDS011;1939;48.720;9.166;2022-07-11T02:52:22;3.80;;;3.03;;
3847;SDS011;1939;48.720;9.166;2022-07-11T02:54:47;3.60;;;2.80;;
3847;SDS011;1939;48.720;9.166;2022-07-11T02:57:13;3.97;;;3.07;;
3847;SDS011;1939;48.720;9.166;2022-07-11T02:59:41;4.37;;;2.90;;
3847;SDS011;1939;48.720;9.166;2022-07-11T03:02:07;3.77;;;3.00;;
3847;SDS011;1939;48.720;9.166;2022-07-11T03:04:32;4.10;;;2.70;;
3847;SDS011;1939;48.720;9.166;2022-07-11T03:06:57;7.37;;;3.20;;
3847;SDS011;1939;48.720;9.166;2022-07-11T03:09:23;4.60;;;3.67;;
3847;SDS011;1939;48.720;9.166;2022-07-11T03:11:48;2.80;;;2.60;;
3847;SDS011;1939;48.720;9.166;2022-07-11T03:14:15;7.53;;;2.63;;
3847;SDS011;1939;48.720;9.166;2022-07-11T03:16:40;5.40;;;2.60;;
3847;SDS011;1939;48.720;9.166;2022-07-11T03:19:05;4.20;;;2.73;;
3847;SDS011;1939;48.720;9.166;2022-07-11T03:21:31;4.43;;;3.13;;
3847;SDS011;1939;48.720;9.166;2022-07-11T03:23:56;4.90;;;3.10;;
3847;SDS011;1939;48.720;9.166;2022-07-11T03:26:21;4.67;;;3.87;;
3847;SDS011;1939;48.720;9.166;2022-07-11T03:28:46;6.30;;;3.03;;
3847;SDS011;1939;48.720;9.166;2022-07-11T03:31:11;5.47;;;3.03;;
3847;SDS011;1939;48.720;9.166;2022-07-11T03:33:37;5.27;;;3.20;;
3847;SDS011;1939;48.720;9.166;2022-07-11T03:36:02;7.23;;;3.63;;
3847;SDS011;1939;48.720;9.166;2022-07-11T03:38:27;5.20;;;3.13;;
3847;SDS011;1939;48.720;9.166;2022-07-11T03:40:53;3.17;;;2.87;;
3847;SDS011;1939;48.720;9.166;2022-07-11T03:43:20;3.90;;;3.50;;
3847;SDS011;1939;48.720;9.166;2022-07-11T03:45:46;4.77;;;3.60;;
3847;SDS011;1939;48.720;9.166;2022-07-11T03:48:12;7.10;;;4.03;;
3847;SDS011;1939;48.720;9.166;2022-07-11T03:50:37;3.23;;;2.70;;
3847;SDS011;1939;48.720;9.166;2022-07-11T03:53:02;5.87;;;3.87;;
3847;SDS011;1939;48.720;9.166;2022-07-11T03:55:28;7.17;;;3.30;;
3847;SDS011;1939;48.720;9.166;2022-07-11T03:57:53;4.00;;;3.43;;
3847;SDS011;1939;48.720;9.166;2022-07-11T04:00:19;4.80;;;3.70;;
3847;SDS011;1939;48.720;9.166;2022-07-11T04:02:45;14.63;;;3.20;;
3847;SDS011;1939;48.720;9.166;2022-07-11T04:05:12;3.33;;;3.03;;
3847;SDS011;1939;48.720;9.166;2022-07-11T04:07:37;3.37;;;2.93;;
3847;SDS011;1939;48.720;9.166;2022-07-11T04:10:02;6.50;;;4.23;;
3847;SDS011;1939;48.720;9.166;2022-07-11T04:12:27;3.53;;;3.20;;
3847;SDS011;1939;48.720;9.166;2022-07-11T04:14:52;3.60;;;3.30;;
3847;SDS011;1939;48.720;9.166;2022-07-11T04:17:18;3.57;;;3.27;;
3847;SDS011;1939;48.720;9.166;2022-07-11T04:19:43;4.50;;;3.20;;
3847;SDS011;1939;48.720;9.166;2022-07-11T04:22:08;17.57;;;3.63;;
3847;SDS011;1939;48.720;9.166;2022-07-11T04:24:33;6.47;;;4.27;;
3847;SDS011;1939;48.720;9.166;2022-07-11T04:26:59;5.50;;;3.70;;
3847;SDS011;1939;48.720;9.166;2022-07-11T04:29:24;5.80;;;4.63;;
3847;SDS011;1939;48.720;9.166;2022-07-11T04:31:50;5.30;;;4.00;;
3847;SDS011;1939;48.720;9.166;2022-07-11T04:34:15;10.67;;;6.53;;
3847;SDS011;1939;48.720;9.166;2022-07-11T04:36:40;9.73;;;6.47;;
3847;SDS011;1939;48.720;9.166;2022-07-11T04:39:06;8.23;;;7.27;;
3847;SDS011;1939;48.720;9.166;2022-07-11T04:41:31;6.70;;;5.90;;
3847;SDS011;1939;48.720;9.166;2022-07-11T04:43:56;7.07;;;5.30;;
3847;SDS011;1939;48.720;9.166;2022-07-11T04:46:21;10.57;;;6.83;;
3847;SDS011;1939;48.720;9.166;2022-07-11T04:48:47;6.60;;;5.70;;
3847;SDS011;1939;48.720;9.166;2022-07-11T04:51:12;8.10;;;6.37;;
3847;SDS011;1939;48.720;9.166;2022-07-11T04:53:37;6.27;;;5.60;;
3847;SDS011;1939;48.720;9.166;2022-07-11T04:56:02;6.30;;;5.63;;
3847;SDS011;1939;48.720;9.166;2022-07-11T04:58:28;7.57;;;5.57;;
3847;SDS011;1939;48.720;9.166;2022-07-11T05:00:57;12.47;;;8.50;;
3847;SDS011;1939;48.720;9.166;2022-07-11T05:03:22;7.47;;;5.53;;
3847;SDS011;1939;48.720;9.166;2022-07-11T05:05:47;6.73;;;5.90;;
3847;SDS011;1939;48.720;9.166;2022-07-11T05:08:12;7.30;;;5.70;;
3847;SDS011;1939;48.720;9.166;2022-07-11T05:10:38;9.20;;;5.10;;
3847;SDS011;1939;48.720;9.166;2022-07-11T05:13:03;6.80;;;6.10;;
3847;SDS011;1939;48.720;9.166;2022-07-11T05:15:28;6.17;;;5.57;;
3847;SDS011;1939;48.720;9.166;2022-07-11T05:17:53;5.80;;;4.90;;
3847;SDS011;1939;48.720;9.166;2022-07-11T05:20:19;6.23;;;5.30;;
3847;SDS011;1939;48.720;9.166;2022-07-11T05:22:44;7.63;;;4.83;;
3847;SDS011;1939;48.720;9.166;2022-07-11T05:25:09;8.77;;;5.60;;
3847;SDS011;1939;48.720;9.166;2022-07-11T05:27:35;6.73;;;5.80;;
3847;SDS011;1939;48.720;9.166;2022-07-11T05:30:00;8.50;;;6.60;;
3847;SDS011;1939;48.720;9.166;2022-07-11T05:32:26;5.87;;;5.20;;
3847;SDS011;1939;48.720;9.166;2022-07-11T05:34:51;12.27;;;5.03;;
3847;SDS011;1939;48.720;9.166;2022-07-11T05:37:16;6.40;;;5.80;;
3847;SDS011;1939;48.720;9.166;2022-07-11T05:39:41;6.53;;;5.83;;
3847;SDS011;1939;48.720;9.166;2022-07-11T05:42:07;5.90;;;5.30;;
3847;SDS011;1939;48.720;9.166;2022-07-11T05:44:32;6.87;;;6.10;;
3847;SDS011;1939;48.720;9.166;2022-07-11T05:46:58;9.60;;;4.80;;
3847;SDS011;1939;48.720;9.166;2022-07-11T05:49:24;8.60;;;5.43;;
3847;SDS011;1939;48.720;9.166;2022-07-11T05:51:49;7.53;;;5.30;;
3847;SDS011;1939;48.720;9.166;2022-07-11T05:54:15;7.97;;;5.87;;
3847;SDS011;1939;48.720;9.166;2022-07-11T05:56:41;7.60;;;5.13;;
3847;SDS011;1939;48.720;9.166;2022-07-11T05:59:06;5.97;;;4.67;;
3847;SDS011;1939;48.720;9.166;2022-07-11T06:01:32;7.00;;;4.50;;
3847;SDS011;1939;48.720;9.166;2022-07-11T06:03:57;4.93;;;4.53;;
3847;SDS011;1939;48.720;9.166;2022-07-11T06:06:23;5.20;;;4.70;;
3847;SDS011;1939;48.720;9.166;2022-07-11T06:08:48;8.97;;;4.20;;
3847;SDS011;1939;48.720;9.166;2022-07-11T06:11:14;7.73;;;5.40;;
3847;SDS011;1939;48.720;9.166;2022-07-11T06:13:40;5.10;;;4.60;;
3847;SDS011;1939;48.720;9.166;2022-07-11T06:16:06;5.57;;;4.83;;
3847;SDS011;1939;48.720;9.166;2022-07-11T06:18:32;6.20;;;5.40;;
3847;SDS011;1939;48.720;9.166;2022-07-11T06:20:57;8.70;;;5.23;;
3847;SDS011;1939;48.720;9.166;2022-07-11T06:23:22;5.50;;;4.83;;
3847;SDS011;1939;48.720;9.166;2022-07-11T06:25:47;6.37;;;4.37;;
3847;SDS011;1939;48.720;9.166;2022-07-11T06:28:13;7.23;;;5.20;;
3847;SDS011;1939;48.720;9.166;2022-07-11T06:30:38;8.07;;;5.13;;
3847;SDS011;1939;48.720;9.166;2022-07-11T06:33:03;5.77;;;4.80;;
3847;SDS011;1939;48.720;9.166;2022-07-11T06:35:29;5.67;;;4.27;;
3847;SDS011;1939;48.720;9.166;2022-07-11T06:37:54;4.27;;;3.73;;
3847;SDS011;1939;48.720;9.166;2022-07-11T06:40:21;9.20;;;3.87;;
3847;SDS011;1939;48.720;9.166;2022-07-11T06:42:46;5.07;;;4.60;;
3847;SDS011;1939;48.720;9.166;2022-07-11T06:45:11;4.40;;;4.00;;
3847;SDS011;1939;48.720;9.166;2022-07-11T06:47:37;6.03;;;4.37;;
3847;SDS011;1939;48.720;9.166;2022-07-11T06:50:02;4.60;;;4.00;;
3847;SDS011;1939;48.720;9.166;2022-07-11T06:52:27;4.23;;;3.83;;
3847;SDS011;1939;48.720;9.166;2022-07-11T06:54:53;6.93;;;4.10;;
3847;SDS011;1939;48.720;9.166;2022-07-11T06:57:18;7.40;;;4.80;;
3847;SDS011;1939;48.720;9.166;2022-07-11T06:59:43;4.40;;;4.00;;
3847;SDS011;1939;48.720;9.166;2022-07-11T07:02:08;7.57;;;4.77;;
3847;SDS011;1939;48.720;9.166;2022-07-11T07:04:34;4.30;;;3.50;;
3847;SDS011;1939;48.720;9.166;2022-07-11T07:06:59;5.63;;;3.70;;
3847;SDS011;1939;48.720;9.166;2022-07-11T07:09:25;5.53;;;4.93;;
3847;SDS011;1939;48.720;9.166;2022-07-11T07:11:51;4.93;;;4.23;;
3847;SDS011;1939;48.720;9.166;2022-07-11T07:14:16;4.97;;;4.47;;
3847;SDS011;1939;48.720;9.166;2022-07-11T07:16:41;8.63;;;3.90;;
3847;SDS011;1939;48.720;9.166;2022-07-11T07:19:07;4.40;;;3.97;;
3847;SDS011;1939;48.720;9.166;2022-07-11T07:21:32;3.80;;;3.50;;
3847;SDS011;1939;48.720;9.166;2022-07-11T07:23:57;3.20;;;3.00;;
3847;SDS011;1939;48.720;9.166;2022-07-11T07:26:22;3.73;;;3.27;;
3847;SDS011;1939;48.720;9.166;2022-07-11T07:28:48;5.73;;;3.50;;
3847;SDS011;1939;48.720;9.166;2022-07-11T07:31:13;3.70;;;3.40;;
3847;SDS011;1939;48.720;9.166;2022-07-11T07:33:38;3.20;;;2.90;;
3847;SDS011;1939;48.720;9.166;2022-07-11T07:36:03;6.07;;;3.20;;
3847;SDS011;1939;48.720;9.166;2022-07-11T07:38:28;2.57;;;2.37;;
3847;SDS011;1939;48.720;9.166;2022-07-11T07:40:54;4.60;;;3.00;;
3847;SDS011;1939;48.720;9.166;2022-07-11T07:43:19;4.50;;;3.23;;
3847;SDS011;1939;48.720;9.166;2022-07-11T07:45:44;2.80;;;2.60;;
3847;SDS011;1939;48.720;9.166;2022-07-11T07:48:10;2.70;;;2.30;;
3847;SDS011;1939;48.720;9.166;2022-07-11T07:50:35;3.23;;;2.53;;
3847;SDS011;1939;48.720;9.166;2022-07-11T07:53:00;3.10;;;2.60;;
3847;SDS011;1939;48.720;9.166;2022-07-11T07:55:26;4.57;;;2.43;;
3847;SDS011;1939;48.720;9.166;2022-07-11T07:57:51;3.40;;;2.70;;
3847;SDS011;1939;48.720;9.166;2022-07-11T08:00:16;4.83;;;2.03;;
3847;SDS011;1939;48.720;9.166;2022-07-11T08:03:03;3.00;;;1.97;;
3847;SDS011;1939;48.720;9.166;2022-07-11T08:05:28;2.20;;;1.47;;
3847;SDS011;1939;48.720;9.166;2022-07-11T08:07:53;1.63;;;1.53;;
3847;SDS011;1939;48.720;9.166;2022-07-11T08:10:18;7.17;;;1.70;;
3847;SDS011;1939;48.720;9.166;2022-07-11T08:12:44;1.10;;;1.10;;
3847;SDS011;1939;48.720;9.166;2022-07-11T08:15:09;2.23;;;1.40;;
3847;SDS011;1939;48.720;9.166;2022-07-11T08:17:35;1.83;;;1.60;;
3847;SDS011;1939;48.720;9.166;2022-07-11T08:20:00;1.93;;;1.83;;
3847;SDS011;1939;48.720;9.166;2022-07-11T08:22:26;1.80;;;1.70;;
3847;SDS011;1939;48.720;9.166;2022-07-11T08:24:51;4.27;;;2.10;;
3847;SDS011;1939;48.720;9.166;2022-07-11T08:27:16;1.80;;;1.70;;
3847;SDS011;1939;48.720;9.166;2022-07-11T08:29:42;4.30;;;1.67;;
3847;SDS011;1939;48.720;9.166;2022-07-11T08:32:07;8.40;;;1.60;;
3847;SDS011;1939;48.720;9.166;2022-07-11T08:34:32;1.80;;;1.23;;
3847;SDS011;1939;48.720;9.166;2022-07-11T08:36:57;1.90;;;1.33;;
3847;SDS011;1939;48.720;9.166;2022-07-11T08:39:23;2.33;;;1.70;;
3847;SDS011;1939;48.720;9.166;2022-07-11T08:41:48;2.77;;;1.53;;
3847;SDS011;1939;48.720;9.166;2022-07-11T08:44:14;2.83;;;1.53;;
3847;SDS011;1939;48.720;9.166;2022-07-11T08:46:40;2.43;;;1.77;;
3847;SDS011;1939;48.720;9.166;2022-07-11T08:49:06;1.80;;;1.50;;
3847;SDS011;1939;48.720;9.166;2022-07-11T08:51:31;2.60;;;1.40;;
3847;SDS011;1939;48.720;9.166;2022-07-11T08:53:56;1.73;;;1.60;;
3847;SDS011;1939;48.720;9.166;2022-07-11T08:56:22;2.73;;;1.70;;
3847;SDS011;1939;48.720;9.166;2022-07-11T08:58:47;2.13;;;1.90;;
3847;SDS011;1939;48.720;9.166;2022-07-11T09:01:16;1.33;;;1.10;;
3847;SDS011;1939;48.720;9.166;2022-07-11T09:03:41;1.40;;;1.27;;
3847;SDS011;1939;48.720;9.166;2022-07-11T09:06:06;1.00;;;1.00;;
3847;SDS011;1939;48.720;9.166;2022-07-11T09:08:32;2.60;;;1.20;;
3847;SDS011;1939;48.720;9.166;2022-07-11T09:10:57;1.73;;;1.20;;
3847;SDS011;1939;48.720;9.166;2022-07-11T09:13:27;1.50;;;1.40;;
3847;SDS011;1939;48.720;9.166;2022-07-11T09:15:52;1.43;;;1.30;;
3847;SDS011;1939;48.720;9.166;2022-07-11T09:20:53;2.87;;;1.50;;
3847;SDS011;1939;48.720;9.166;2022-07-11T09:23:37;2.77;;;1.20;;
3847;SDS011;1939;48.720;9.166;2022-07-11T09:26:21;2.20;;;1.70;;
3847;SDS011;1939;48.720;9.166;2022-07-11T09:31:51;1.90;;;0.97;;
3847;SDS011;1939;48.720;9.166;2022-07-11T09:34:17;1.90;;;1.00;;
3847;SDS011;1939;48.720;9.166;2022-07-11T09:36:44;0.87;;;0.77;;
3847;SDS011;1939;48.720;9.166;2022-07-11T09:39:11;1.90;;;0.87;;
3847;SDS011;1939;48.720;9.166;2022-07-11T09:41:37;1.17;;;0.93;;
3847;SDS011;1939;48.720;9.166;2022-07-11T09:44:21;1.03;;;1.00;;
3847;SDS011;1939;48.720;9.166;2022-07-11T09:46:48;1.70;;;0.93;;
3847;SDS011;1939;48.720;9.166;2022-07-11T09:49:14;1.13;;;1.03;;
3847;SDS011;1939;48.720;9.166;2022-07-11T09:51:40;1.10;;;1.00;;
3847;SDS011;1939;48.720;9.166;2022-07-11T09:54:06;2.30;;;1.27;;
3847;SDS011;1939;48.720;9.166;2022-07-11T09:59:00;1.30;;;1.20;;
3847;SDS011;1939;48.720;9.166;2022-07-11T10:01:26;4.63;;;1.30;;
3847;SDS011;1939;48.720;9.166;2022-07-11T10:03:51;1.20;;;1.07;;
3847;SDS011;1939;48.720;9.166;2022-07-11T10:06:16;1.53;;;1.20;;
3847;SDS011;1939;48.720;9.166;2022-07-11T10:08:42;1.67;;;1.30;;
3847;SDS011;1939;48.720;9.166;2022-07-11T10:11:07;4.27;;;1.63;;
3847;SDS011;1939;48.720;9.166;2022-07-11T10:13:34;1.60;;;1.50;;
3847;SDS011;1939;48.720;9.166;2022-07-11T10:16:00;2.57;;;1.20;;
3847;SDS011;1939;48.720;9.166;2022-07-11T10:18:32;2.60;;;1.90;;
3847;SDS011;1939;48.720;9.166;2022-07-11T10:21:00;1.90;;;1.80;;
3847;SDS011;1939;48.720;9.166;2022-07-11T10:26:01;2.80;;;2.10;;
3847;SDS011;1939;48.720;9.166;2022-07-11T10:28:39;2.13;;;1.93;;
3847;SDS011;1939;48.720;9.166;2022-07-11T10:31:16;3.30;;;1.50;;
3847;SDS011;1939;48.720;9.166;2022-07-11T10:33:46;3.07;;;1.70;;
3847;SDS011;1939;48.720;9.166;2022-07-11T10:36:27;3.43;;;1.40;;
3847;SDS011;1939;48.720;9.166;2022-07-11T10:41:36;1.60;;;1.47;;
3847;SDS011;1939;48.720;9.166;2022-07-11T10:44:01;3.07;;;1.80;;
3847;SDS011;1939;48.720;9.166;2022-07-11T10:46:27;1.93;;;1.33;;
3847;SDS011;1939;48.720;9.166;2022-07-11T10:48:59;2.30;;;1.33;;
3847;SDS011;1939;48.720;9.166;2022-07-11T10:57:04;1.40;;;1.30;;
3847;SDS011;1939;48.720;9.166;2022-07-11T10:59:26;1.03;;;0.93;;
3847;SDS011;1939;48.720;9.166;2022-07-11T11:02:00;1.10;;;1.00;;
3847;SDS011;1939;48.720;9.166;2022-07-11T11:09:55;1.20;;;1.07;;
3847;SDS011;1939;48.720;9.166;2022-07-11T11:12:20;1.63;;;1.20;;
3847;SDS011;1939;48.720;9.166;2022-07-11T11:15:31;1.30;;;1.20;;
3847;SDS011;1939;48.720;9.166;2022-07-11T11:17:56;4.07;;;1.00;;
3847;SDS011;1939;48.720;9.166;2022-07-11T11:20:30;1.83;;;1.30;;
3847;SDS011;1939;48.720;9.166;2022-07-11T11:23:08;2.80;;;1.37;;
3847;SDS011;1939;48.720;9.166;2022-07-11T11:25:34;1.37;;;1.27;;
3847;SDS011;1939;48.720;9.166;2022-07-11T11:28:02;2.33;;;1.33;;
3847;SDS011;1939;48.720;9.166;2022-07-11T11:30:28;1.83;;;1.40;;
3847;SDS011;1939;48.720;9.166;2022-07-11T11:32:53;4.20;;;1.50;;
3847;SDS011;1939;48.720;9.166;2022-07-11T11:35:19;1.47;;;1.37;;
3847;SDS011;1939;48.720;9.166;2022-07-11T11:37:44;1.30;;;1.20;;
3847;SDS011;1939;48.720;9.166;2022-07-11T11:40:09;2.10;;;1.30;;
3847;SDS011;1939;48.720;9.166;2022-07-11T11:42:35;1.57;;;1.47;;
3847;SDS011;1939;48.720;9.166;2022-07-11T11:45:04;1.80;;;1.70;;
3847;SDS011;1939;48.720;9.166;2022-07-11T11:47:29;2.80;;;1.17;;
3847;SDS011;1939;48.720;9.166;2022-07-11T11:49:55;2.60;;;1.23;;
3847;SDS011;1939;48.720;9.166;2022-07-11T11:52:21;1.93;;;1.30;;
3847;SDS011;1939;48.720;9.166;2022-07-11T11:54:56;1.47;;;1.00;;
3847;SDS011;1939;48.720;9.166;2022-07-11T11:57:22;1.70;;;1.60;;
3847;SDS011;1939;48.720;9.166;2022-07-11T11:59:48;3.80;;;2.07;;
3847;SDS011;1939;48.720;9.166;2022-07-11T12:02:20;1.20;;;1.10;;
3847;SDS011;1939;48.720;9.166;2022-07-11T12:04:45;2.80;;;1.73;;
3847;SDS011;1939;48.720;9.166;2022-07-11T12:07:10;1.50;;;1.40;;
3847;SDS011;1939;48.720;9.166;2022-07-11T12:09:36;1.97;;;1.50;;
3847;SDS011;1939;48.720;9.166;2022-07-11T12:12:20;2.77;;;1.40;;
3847;SDS011;1939;48.720;9.166;2022-07-11T12:15:04;1.60;;;1.50;;
3847;SDS011;1939;48.720;9.166;2022-07-11T12:17:31;1.80;;;1.70;;
3847;SDS011;1939;48.720;9.166;2022-07-11T12:19:57;2.80;;;1.53;;
3847;SDS011;1939;48.720;9.166;2022-07-11T12:22:22;4.90;;;1.63;;
3847;SDS011;1939;48.720;9.166;2022-07-11T12:24:48;1.87;;;1.50;;
3847;SDS011;1939;48.720;9.166;2022-07-11T12:27:20;1.70;;;1.60;;
3847;SDS011;1939;48.720;9.166;2022-07-11T12:29:45;3.03;;;1.53;;
3847;SDS011;1939;48.720;9.166;2022-07-11T12:32:16;2.33;;;1.60;;
3847;SDS011;1939;48.720;9.166;2022-07-11T12:34:43;1.57;;;1.47;;
3847;SDS011;1939;48.720;9.166;2022-07-11T12:37:15;5.63;;;1.87;;
3847;SDS011;1939;48.720;9.166;2022-07-11T12:39:48;5.67;;;2.00;;
3847;SDS011;1939;48.720;9.166;2022-07-11T12:44:58;2.20;;;2.00;;
3847;SDS011;1939;48.720;9.166;2022-07-11T12:47:26;1.20;;;1.10;;
3847;SDS011;1939;48.720;9.166;2022-07-11T12:49:51;4.50;;;1.63;;
3847;SDS011;1939;48.720;9.166;2022-07-11T12:52:17;1.63;;;1.53;;
3847;SDS011;1939;48.720;9.166;2022-07-11T12:54:42;1.53;;;1.40;;
3847;SDS011;1939;48.720;9.166;2022-07-11T12:57:08;1.70;;;1.60;;
3847;SDS011;1939;48.720;9.166;2022-07-11T12:59:33;2.43;;;1.40;;
3847;SDS011;1939;48.720;9.166;2022-07-11T13:02:00;5.93;;;1.60;;
3847;SDS011;1939;48.720;9.166;2022-07-11T13:06:54;2.00;;;1.90;;
3847;SDS011;1939;48.720;9.166;2022-07-11T13:09:37;1.70;;;1.60;;
3847;SDS011;1939;48.720;9.166;2022-07-11T13:12:03;1.90;;;1.80;;
3847;SDS011;1939;48.720;9.166;2022-07-11T13:14:28;3.97;;;1.90;;
3847;SDS011;1939;48.720;9.166;2022-07-11T13:17:12;2.40;;;2.03;;
3847;SDS011;1939;48.720;9.166;2022-07-11T13:19:37;1.83;;;1.70;;
3847;SDS011;1939;48.720;9.166;2022-07-11T13:22:02;2.60;;;1.67;;
3847;SDS011;1939;48.720;9.166;2022-07-11T13:24:28;2.30;;;2.10;;
3847;SDS011;1939;48.720;9.166;2022-07-11T13:26:53;2.90;;;1.50;;
3847;SDS011;1939;48.720;9.166;2022-07-11T13:29:18;5.97;;;1.90;;
3847;SDS011;1939;48.720;9.166;2022-07-11T13:31:43;3.40;;;2.37;;
3847;SDS011;1939;48.720;9.166;2022-07-11T13:34:09;1.80;;;1.70;;
3847;SDS011;1939;48.720;9.166;2022-07-11T13:36:34;1.97;;;1.70;;
3847;SDS011;1939;48.720;9.166;2022-07-11T13:38:59;2.60;;;1.90;;
3847;SDS011;1939;48.720;9.166;2022-07-11T13:41:24;3.10;;;2.80;;
3847;SDS011;1939;48.720;9.166;2022-07-11T13:43:49;2.50;;;2.30;;
3847;SDS011;1939;48.720;9.166;2022-07-11T13:46:15;3.00;;;2.10;;
3847;SDS011;1939;48.720;9.166;2022-07-11T13:48:40;5.30;;;2.27;;
3847;SDS011;1939;48.720;9.166;2022-07-11T13:51:06;7.03;;;2.30;;
3847;SDS011;1939;48.720;9.166;2022-07-11T13:53:32;6.00;;;2.70;;
3847;SDS011;1939;48.720;9.166;2022-07-11T13:55:57;2.07;;;1.97;;
3847;SDS011;1939;48.720;9.166;2022-07-11T13:58:22;2.07;;;1.93;;
3847;SDS011;1939;48.720;9.166;2022-07-11T14:00:51;2.90;;;2.17;;
3847;SDS011;1939;48.720;9.166;2022-07-11T14:03:17;2.57;;;2.20;;
3847;SDS011;1939;48.720;9.166;2022-07-11T14:05:42;5.03;;;3.10;;
3847;SDS011;1939;48.720;9.166;2022-07-11T14:08:07;3.00;;;2.53;;
3847;SDS011;1939;48.720;9.166;2022-07-11T14:10:33;5.63;;;2.07;;
3847;SDS011;1939;48.720;9.166;2022-07-11T14:12:58;3.17;;;2.87;;
3847;SDS011;1939;48.720;9.166;2022-07-11T14:15:24;4.03;;;2.33;;
3847;SDS011;1939;48.720;9.166;2022-07-11T14:17:50;4.07;;;2.80;;
3847;SDS011;1939;48.720;9.166;2022-07-11T14:20:15;4.30;;;2.53;;
3847;SDS011;1939;48.720;9.166;2022-07-11T14:22:40;2.33;;;2.10;;
3847;SDS011;1939;48.720;9.166;2022-07-11T14:25:06;2.63;;;2.23;;
3847;SDS011;1939;48.720;9.166;2022-07-11T14:27:32;4.40;;;2.50;;
3847;SDS011;1939;48.720;9.166;2022-07-11T14:30:00;2.93;;;2.10;;
3847;SDS011;1939;48.720;9.166;2022-07-11T14:32:26;4.17;;;2.30;;
3847;SDS011;1939;48.720;9.166;2022-07-11T14:34:51;2.60;;;2.40;;
3847;SDS011;1939;48.720;9.166;2022-07-11T14:37:16;2.90;;;2.70;;
3847;SDS011;1939;48.720;9.166;2022-07-11T14:39:42;2.13;;;1.93;;
3847;SDS011;1939;48.720;9.166;2022-07-11T14:42:07;6.10;;;2.83;;
3847;SDS011;1939;48.720;9.166;2022-07-11T14:44:33;3.97;;;2.80;;
3847;SDS011;1939;48.720;9.166;2022-07-11T14:46:58;4.23;;;2.97;;
3847;SDS011;1939;48.720;9.166;2022-07-11T14:49:24;6.97;;;2.47;;
3847;SDS011;1939;48.720;9.166;2022-07-11T14:51:49;4.30;;;2.57;;
3847;SDS011;1939;48.720;9.166;2022-07-11T14:54:14;3.43;;;2.60;;
3847;SDS011;1939;48.720;9.166;2022-07-11T14:56:40;4.47;;;2.77;;
3847;SDS011;1939;48.720;9.166;2022-07-11T14:59:05;3.10;;;2.90;;
3847;SDS011;1939;48.720;9.166;2022-07-11T15:01:31;6.97;;;2.77;;
3847;SDS011;1939;48.720;9.166;2022-07-11T15:03:56;2.60;;;2.40;;
3847;SDS011;1939;48.720;9.166;2022-07-11T15:06:22;3.30;;;2.40;;
3847;SDS011;1939;48.720;9.166;2022-07-11T15:09:07;4.80;;;2.70;;
3847;SDS011;1939;48.720;9.166;2022-07-11T15:11:51;5.27;;;3.27;;
3847;SDS011;1939;48.720;9.166;2022-07-11T15:14:35;8.97;;;2.80;;
3847;SDS011;1939;48.720;9.166;2022-07-11T15:17:00;5.60;;;3.20;;
3847;SDS011;1939;48.720;9.166;2022-07-11T15:19:25;4.40;;;3.10;;
3847;SDS011;1939;48.720;9.166;2022-07-11T15:21:50;3.23;;;2.93;;
3847;SDS011;1939;48.720;9.166;2022-07-11T15:24:15;4.93;;;3.23;;
3847;SDS011;1939;48.720;9.166;2022-07-11T15:26:40;3.93;;;2.87;;
3847;SDS011;1939;48.720;9.166;2022-07-11T15:29:06;3.00;;;2.70;;
3847;SDS011;1939;48.720;9.166;2022-07-11T15:31:33;4.57;;;3.10;;
3847;SDS011;1939;48.720;9.166;2022-07-11T15:33:58;4.37;;;2.30;;
3847;SDS011;1939;48.720;9.166;2022-07-11T15:36:23;4.53;;;2.60;;
3847;SDS011;1939;48.720;9.166;2022-07-11T15:38:48;4.23;;;3.70;;
3847;SDS011;1939;48.720;9.166;2022-07-11T15:41:14;3.97;;;2.73;;